Terminal Aerodrome Forecast
Issued by NWS

Home | Current Version | Previous Version | Text Only | Print | Product List | Glossary On
Versions: 1 2 3 4 5 6 7 8 9 10 11 12 13
000
FTUS45 KGGW 201120
TAFGDV
TAF
KGDV 201120Z 2012/2112 23010KT P6SM SCT140 WS020/28045KT
     FM201700 26019KT P6SM BKN150
     FM210700 33013KT P6SM SCT080=

USA.gov is the U.S. government's official web portal to all federal, state and local government web resources and services.